Time;durP1;ratioP1;P1;durP2;ratioP2;P2;SDS_P1;SDS_P2;PMS_P1;PMS_P2;Temp;Humidity;BMP_temperature;BMP_pressure;BME280_temperature;BME280_humidity;BME280_pressure;Samples;Min_cycle;Max_cycle;Signal;HPM_P1;HPM_P2
2023/06/07 00:00:49;;;;;;;3.63;3.27;;;18.90;60.00;;;;;;5205518;28;20191;-46
2023/06/07 00:03:21;;;;;;;6.73;3.40;;;18.80;59.90;;;;;;5185855;28;20202;-43
2023/06/07 00:05:51;;;;;;;4.00;3.60;;;18.80;59.90;;;;;;5188640;28;20518;-44
2023/06/07 00:08:23;;;;;;;3.47;2.83;;;18.70;59.80;;;;;;5182380;28;20931;-44
2023/06/07 00:10:54;;;;;;;3.80;3.50;;;18.70;59.60;;;;;;5184558;28;20187;-44
2023/06/07 00:13:25;;;;;;;5.03;3.17;;;18.70;59.70;;;;;;5184724;28;20441;-45
2023/06/07 00:15:56;;;;;;;4.07;2.50;;;18.60;59.60;;;;;;5186652;28;20462;-44
2023/06/07 00:18:28;;;;;;;3.43;3.10;;;18.70;59.70;;;;;;5183819;28;20298;-44
2023/06/07 00:20:58;;;;;;;3.10;2.90;;;18.70;59.40;;;;;;5200997;28;20184;-44
2023/06/07 00:23:30;;;;;;;3.03;2.93;;;18.70;59.40;;;;;;5203886;28;20452;-44
2023/06/07 00:26:01;;;;;;;3.20;2.90;;;18.70;59.30;;;;;;5180963;28;20200;-44
2023/06/07 00:28:32;;;;;;;4.73;3.07;;;18.60;59.50;;;;;;5192877;28;20516;-45
2023/06/07 00:31:03;;;;;;;6.30;3.70;;;18.60;59.40;;;;;;5183952;28;20656;-43
2023/06/07 00:33:33;;;;;;;4.43;3.27;;;18.60;59.70;;;;;;5199091;28;20732;-44
2023/06/07 00:36:05;;;;;;;3.20;2.90;;;18.50;59.70;;;;;;5162551;28;1415909;-43
2023/06/07 00:38:35;;;;;;;3.83;2.87;;;18.50;59.80;;;;;;5196348;28;20306;-44
2023/06/07 00:41:06;;;;;;;3.37;2.73;;;18.50;59.90;;;;;;5199672;28;21045;-45
2023/06/07 00:43:36;;;;;;;2.93;2.73;;;18.40;60.00;;;;;;5197054;28;20188;-45
2023/06/07 00:46:07;;;;;;;4.00;2.87;;;18.40;60.30;;;;;;5202831;28;20264;-44
2023/06/07 00:48:38;;;;;;;3.70;3.10;;;18.40;60.40;;;;;;5202771;28;20257;-44
2023/06/07 00:51:09;;;;;;;3.57;3.27;;;18.40;60.70;;;;;;5180521;28;20180;-44
2023/06/07 00:53:39;;;;;;;3.20;3.00;;;18.30;60.60;;;;;;5204956;28;20651;-46
2023/06/07 00:56:10;;;;;;;3.17;2.97;;;18.30;60.80;;;;;;5212518;28;20179;-43
2023/06/07 00:58:45;;;;;;;2.67;2.47;;;18.30;60.70;;;;;;5210905;28;20187;-44
2023/06/07 01:01:17;;;;;;;7.93;3.00;;;18.30;60.80;;;;;;5210219;28;20438;-44
2023/06/07 01:03:48;;;;;;;3.43;3.13;;;18.20;60.80;;;;;;5182631;28;20438;-44
2023/06/07 01:06:21;;;;;;;2.60;2.50;;;18.30;60.80;;;;;;5185515;28;20894;-44
2023/06/07 01:08:52;;;;;;;5.30;2.67;;;18.20;60.80;;;;;;5202854;28;20556;-44
2023/06/07 01:11:24;;;;;;;2.67;2.57;;;18.20;60.80;;;;;;5198620;28;20445;-44
2023/06/07 01:13:54;;;;;;;3.10;2.90;;;18.10;60.90;;;;;;5171046;28;20722;-46
2023/06/07 01:16:25;;;;;;;2.77;2.57;;;18.10;60.90;;;;;;5179724;28;20451;-44
2023/06/07 01:18:56;;;;;;;2.90;2.70;;;18.10;60.90;;;;;;5198612;28;20577;-44
2023/06/07 01:21:27;;;;;;;3.53;2.93;;;18.10;61.00;;;;;;5179281;28;20214;-44
2023/06/07 01:23:59;;;;;;;3.17;2.87;;;18.10;60.90;;;;;;5199781;28;20631;-44
2023/06/07 01:26:31;;;;;;;2.60;2.50;;;18.10;61.00;;;;;;5200803;28;20264;-44
2023/06/07 01:29:05;;;;;;;4.27;2.07;;;18.10;60.90;;;;;;5197382;28;20977;-44
2023/06/07 01:31:39;;;;;;;2.97;2.77;;;18.10;60.90;;;;;;5189778;28;20436;-44
2023/06/07 01:34:13;;;;;;;2.97;2.77;;;18.10;61.10;;;;;;5183156;28;20549;-44
2023/06/07 01:36:44;;;;;;;2.70;2.60;;;18.10;61.30;;;;;;5167581;28;20488;-44
2023/06/07 01:39:17;;;;;;;8.23;3.30;;;18.00;61.40;;;;;;5182964;28;20467;-44
2023/06/07 01:41:50;;;;;;;2.70;2.60;;;18.00;61.50;;;;;;5181513;28;20465;-45
2023/06/07 01:44:20;;;;;;;3.20;2.97;;;18.00;61.40;;;;;;5196750;28;20454;-44
2023/06/07 01:46:51;;;;;;;5.03;2.90;;;18.00;61.60;;;;;;5201791;28;20989;-44
2023/06/07 01:49:22;;;;;;;4.33;3.13;;;17.90;61.50;;;;;;5189788;28;20648;-44
2023/06/07 01:51:52;;;;;;;2.40;2.30;;;17.80;61.60;;;;;;5183044;28;20220;-44
2023/06/07 01:54:23;;;;;;;3.40;3.20;;;17.80;61.70;;;;;;5194470;28;20203;-46
2023/06/07 01:57:12;;;;;;;3.10;2.80;;;17.80;61.70;;;;;;5195140;28;20270;-44
2023/06/07 02:00:15;;;;;;;8.57;3.07;;;17.80;61.70;;;;;;5186312;28;20480;-44
2023/06/07 02:02:50;;;;;;;6.30;3.70;;;17.80;61.70;;;;;;5157671;28;20487;-45
2023/06/07 02:05:44;;;;;;;4.93;2.97;;;17.80;61.80;;;;;;5206478;28;20468;-44
2023/06/07 02:08:39;;;;;;;2.97;2.67;;;17.80;61.80;;;;;;5191395;28;20449;-45
2023/06/07 02:11:12;;;;;;;3.10;2.93;;;17.70;61.40;;;;;;5187426;28;20597;-44
2023/06/07 02:13:43;;;;;;;3.70;2.53;;;17.70;61.30;;;;;;5189158;28;20438;-43
2023/06/07 02:16:14;;;;;;;2.83;2.63;;;17.70;61.30;;;;;;5199756;28;20489;-45
2023/06/07 02:18:45;;;;;;;3.90;3.03;;;17.70;61.20;;;;;;5192710;28;20458;-44
2023/06/07 02:21:15;;;;;;;5.03;2.90;;;17.70;60.90;;;;;;5214791;28;20187;-44
2023/06/07 02:23:46;;;;;;;4.87;2.87;;;17.70;60.80;;;;;;5206373;28;20200;-44
2023/06/07 02:26:16;;;;;;;3.37;3.10;;;17.70;60.80;;;;;;5206511;28;20234;-46
2023/06/07 02:28:47;;;;;;;2.83;2.63;;;17.70;60.70;;;;;;5206273;28;20185;-45
2023/06/07 02:31:20;;;;;;;3.00;2.80;;;17.70;60.70;;;;;;5208766;28;20263;-44
2023/06/07 02:33:51;;;;;;;3.40;2.77;;;17.70;60.40;;;;;;5193228;28;20188;-43
2023/06/07 02:36:22;;;;;;;3.33;3.03;;;17.70;60.40;;;;;;5177103;28;20519;-44
2023/06/07 02:38:52;;;;;;;3.00;2.63;;;17.70;60.30;;;;;;5201255;28;20582;-43
2023/06/07 02:41:23;;;;;;;3.43;3.17;;;17.70;60.40;;;;;;5213372;28;20434;-44
2023/06/07 02:43:53;;;;;;;3.30;2.83;;;17.70;60.50;;;;;;5202704;28;20203;-44
2023/06/07 02:46:24;;;;;;;3.33;2.40;;;17.60;60.40;;;;;;5197884;28;20184;-45
2023/06/07 02:48:55;;;;;;;2.70;2.50;;;17.60;60.40;;;;;;5202282;28;20189;-45
2023/06/07 02:51:25;;;;;;;3.40;2.83;;;17.60;60.30;;;;;;5204911;28;20183;-44
2023/06/07 02:53:56;;;;;;;3.10;3.00;;;17.60;60.30;;;;;;5200434;28;20183;-44
2023/06/07 02:56:29;;;;;;;6.17;2.93;;;17.60;60.30;;;;;;5198208;28;20485;-43
2023/06/07 02:59:00;;;;;;;4.10;3.43;;;17.60;60.30;;;;;;5192457;28;20579;-43
2023/06/07 03:01:33;;;;;;;2.47;2.37;;;17.70;60.20;;;;;;5203878;28;20442;-44
2023/06/07 03:04:04;;;;;;;2.50;2.30;;;17.60;60.20;;;;;;5202026;28;20211;-44
2023/06/07 03:06:34;;;;;;;3.57;2.67;;;17.70;60.30;;;;;;5188278;28;20438;-45
2023/06/07 03:09:05;;;;;;;2.80;2.60;;;17.60;60.20;;;;;;5202050;28;21223;-46
2023/06/07 03:11:36;;;;;;;3.20;3.00;;;17.60;60.20;;;;;;5188939;28;20188;-43
2023/06/07 03:14:06;;;;;;;3.70;3.00;;;17.70;60.30;;;;;;5194725;28;20207;-46
2023/06/07 03:16:37;;;;;;;2.97;2.77;;;17.60;59.90;;;;;;5199864;28;20195;-43
2023/06/07 03:19:07;;;;;;;5.90;2.87;;;17.60;60.10;;;;;;5208409;28;20199;-45
2023/06/07 03:21:38;;;;;;;4.10;3.00;;;17.70;60.30;;;;;;5219098;28;20257;-44
2023/06/07 03:24:10;;;;;;;2.50;2.40;;;17.70;60.40;;;;;;5204556;28;20679;-44
2023/06/07 03:26:41;;;;;;;3.50;2.77;;;17.70;60.20;;;;;;5202158;28;20186;-44
2023/06/07 03:29:12;;;;;;;3.70;3.30;;;17.70;60.10;;;;;;5205258;28;20443;-44
2023/06/07 03:31:42;;;;;;;5.50;2.73;;;17.70;60.20;;;;;;5180109;28;20192;-44
2023/06/07 03:34:13;;;;;;;3.07;2.97;;;17.70;60.20;;;;;;5196742;28;20212;-45
2023/06/07 03:36:44;;;;;;;4.03;2.73;;;17.70;60.10;;;;;;5198017;28;20176;-44
2023/06/07 03:39:15;;;;;;;6.33;3.57;;;17.70;60.10;;;;;;5186619;28;20253;-44
2023/06/07 03:41:46;;;;;;;2.83;2.60;;;17.80;59.80;;;;;;5184903;28;20893;-45
2023/06/07 03:44:16;;;;;;;3.23;2.43;;;17.80;59.70;;;;;;5206174;28;20260;-44
2023/06/07 03:46:47;;;;;;;6.10;2.47;;;17.80;59.60;;;;;;5202745;28;20187;-46
2023/06/07 03:49:18;;;;;;;2.80;2.60;;;17.80;59.50;;;;;;5186082;28;20196;-44
2023/06/07 03:51:49;;;;;;;2.77;2.60;;;17.80;59.30;;;;;;5199833;28;20184;-44
2023/06/07 03:54:20;;;;;;;7.53;3.47;;;17.90;59.30;;;;;;5197039;28;20672;-44
2023/06/07 03:56:51;;;;;;;3.10;2.87;;;18.00;59.00;;;;;;5200804;28;20457;-44
2023/06/07 03:59:22;;;;;;;3.83;3.03;;;18.10;58.70;;;;;;5208527;28;20231;-44
2023/06/07 04:01:52;;;;;;;2.80;2.60;;;18.20;58.40;;;;;;5209084;28;20249;-45
2023/06/07 04:04:27;;;;;;;4.53;2.57;;;18.20;58.40;;;;;;5204335;28;20301;-44
2023/06/07 04:06:58;;;;;;;4.30;3.00;;;18.40;58.30;;;;;;5172849;28;20191;-46
2023/06/07 04:09:29;;;;;;;3.27;3.00;;;18.50;57.70;;;;;;5213812;28;20781;-44
2023/06/07 04:12:01;;;;;;;5.20;2.90;;;18.60;57.40;;;;;;5201859;28;20446;-43
2023/06/07 04:14:32;;;;;;;3.50;3.40;;;18.70;56.90;;;;;;5199792;28;20595;-43
2023/06/07 04:17:03;;;;;;;3.47;3.27;;;18.60;56.70;;;;;;5195285;28;20441;-45
2023/06/07 04:19:33;;;;;;;3.17;3.07;;;18.60;56.50;;;;;;5204771;28;20821;-43
2023/06/07 04:22:04;;;;;;;6.23;3.40;;;18.60;56.40;;;;;;5197893;28;20219;-43
2023/06/07 04:24:35;;;;;;;3.10;3.00;;;18.60;56.00;;;;;;5200412;28;20696;-43
2023/06/07 04:27:11;;;;;;;4.70;2.87;;;18.60;56.00;;;;;;5204249;28;20475;-45
2023/06/07 04:29:41;;;;;;;3.57;3.27;;;18.60;56.20;;;;;;5196279;28;20334;-44
2023/06/07 04:32:12;;;;;;;3.80;3.07;;;18.70;55.30;;;;;;5186833;28;20532;-44
2023/06/07 04:34:45;;;;;;;3.97;3.10;;;18.80;55.90;;;;;;5211243;28;20250;-44
2023/06/07 04:37:16;;;;;;;3.10;2.90;;;18.80;55.00;;;;;;5189154;28;20446;-44
2023/06/07 04:39:51;;;;;;;3.03;2.63;;;18.90;54.50;;;;;;5183905;28;20977;-44
2023/06/07 04:42:23;;;;;;;8.43;3.03;;;18.90;54.50;;;;;;5199266;28;20198;-43
2023/06/07 04:44:53;;;;;;;12.73;2.80;;;19.00;54.00;;;;;;5199319;28;20466;-44
2023/06/07 04:47:24;;;;;;;3.47;3.13;;;19.00;53.60;;;;;;5207197;28;20433;-44
2023/06/07 04:49:56;;;;;;;4.70;2.67;;;19.00;53.40;;;;;;5206403;28;20191;-43
2023/06/07 04:52:28;;;;;;;3.00;2.80;;;19.10;53.30;;;;;;5198895;28;20443;-44
2023/06/07 04:54:59;;;;;;;5.80;2.80;;;19.20;52.60;;;;;;5180028;28;20468;-43
2023/06/07 04:57:32;;;;;;;2.40;2.30;;;19.40;52.40;;;;;;5215340;28;20421;-44
2023/06/07 05:00:06;;;;;;;5.97;2.53;;;19.60;52.50;;;;;;5198729;28;20245;-45
2023/06/07 05:02:41;;;;;;;2.40;2.20;;;19.80;52.20;;;;;;5192548;28;20541;-43
2023/06/07 05:05:13;;;;;;;3.13;2.77;;;20.00;51.40;;;;;;5175779;28;21008;-43
2023/06/07 05:07:44;;;;;;;3.77;2.70;;;20.20;50.90;;;;;;5176883;28;20438;-44
2023/06/07 05:10:17;;;;;;;3.00;2.70;;;20.40;50.70;;;;;;5164583;28;22020;-44
2023/06/07 05:12:48;;;;;;;11.57;3.10;;;20.40;50.40;;;;;;5183865;28;20438;-45
2023/06/07 05:15:21;;;;;;;2.67;2.43;;;20.40;50.50;;;;;;5199357;28;20796;-44
2023/06/07 05:17:53;;;;;;;3.33;2.93;;;20.50;50.60;;;;;;5205294;28;20206;-43
2023/06/07 05:20:27;;;;;;;7.40;3.13;;;20.60;50.10;;;;;;5202072;28;20481;-44
2023/06/07 05:22:57;;;;;;;5.00;3.20;;;20.80;50.20;;;;;;5190028;28;20434;-45
2023/06/07 05:25:28;;;;;;;3.10;2.77;;;21.10;49.80;;;;;;5206520;28;20947;-44
2023/06/07 05:27:59;;;;;;;7.73;3.60;;;21.30;49.60;;;;;;5189186;28;20263;-45
2023/06/07 05:30:29;;;;;;;3.37;2.97;;;21.30;49.00;;;;;;5201837;28;20176;-44
2023/06/07 05:33:00;;;;;;;9.83;2.93;;;21.30;49.10;;;;;;5184450;28;20186;-44
2023/06/07 05:35:31;;;;;;;4.60;2.90;;;21.60;49.00;;;;;;5199051;28;20517;-44
2023/06/07 05:38:01;;;;;;;4.40;2.87;;;21.80;48.60;;;;;;5193198;28;20258;-45
2023/06/07 05:40:32;;;;;;;2.50;2.30;;;22.10;47.90;;;;;;5205052;28;20179;-44
2023/06/07 05:43:04;;;;;;;4.80;2.60;;;22.30;47.80;;;;;;5172645;28;20207;-46
2023/06/07 05:45:35;;;;;;;2.33;2.20;;;22.40;47.30;;;;;;5195543;28;20199;-44
2023/06/07 05:48:05;;;;;;;10.03;3.07;;;22.40;47.40;;;;;;5216034;28;20445;-43
2023/06/07 05:50:36;;;;;;;2.77;2.43;;;22.30;47.50;;;;;;5204261;28;20434;-45
2023/06/07 05:53:06;;;;;;;3.50;2.30;;;22.30;47.60;;;;;;5196970;28;20199;-44
2023/06/07 05:55:37;;;;;;;6.07;3.07;;;22.30;47.50;;;;;;5206258;28;20286;-43
2023/06/07 05:58:09;;;;;;;3.57;2.47;;;22.50;47.50;;;;;;5183614;28;20238;-43
2023/06/07 06:00:40;;;;;;;6.87;3.10;;;22.80;47.70;;;;;;5210090;28;20171;-44
2023/06/07 06:03:11;;;;;;;5.63;3.00;;;23.00;46.60;;;;;;5200937;28;20437;-45
2023/06/07 06:05:42;;;;;;;8.63;3.10;;;23.30;46.60;;;;;;5205446;28;20815;-44
2023/06/07 06:08:13;;;;;;;2.27;2.07;;;23.60;45.50;;;;;;5212597;28;20194;-44
2023/06/07 06:10:44;;;;;;;7.63;2.97;;;23.60;45.10;;;;;;5207026;28;20172;-43
2023/06/07 06:13:15;;;;;;;3.23;2.93;;;23.30;45.00;;;;;;5187077;28;20438;-43
2023/06/07 06:15:46;;;;;;;5.33;2.67;;;23.20;44.90;;;;;;5187410;28;20520;-44
2023/06/07 06:18:17;;;;;;;3.53;2.47;;;23.00;44.40;;;;;;5205416;28;20200;-46
2023/06/07 06:20:47;;;;;;;5.70;3.13;;;22.80;45.00;;;;;;5172381;28;20183;-45
2023/06/07 06:23:18;;;;;;;3.00;2.80;;;22.50;44.80;;;;;;5175022;28;20195;-45
2023/06/07 06:25:48;;;;;;;2.60;2.43;;;22.20;44.60;;;;;;5193336;28;20234;-44
2023/06/07 06:28:21;;;;;;;5.83;2.63;;;22.00;45.00;;;;;;5195064;28;20184;-45
2023/06/07 06:30:51;;;;;;;2.87;2.70;;;22.20;45.00;;;;;;5184044;28;20595;-45
2023/06/07 06:33:22;;;;;;;6.67;3.27;;;22.50;44.10;;;;;;5190040;28;20442;-45
2023/06/07 06:35:53;;;;;;;4.03;3.23;;;22.70;43.30;;;;;;5184953;28;20270;-45
2023/06/07 06:38:23;;;;;;;3.27;2.97;;;22.90;43.00;;;;;;5199893;28;20208;-45
2023/06/07 06:40:54;;;;;;;3.43;2.87;;;23.10;42.70;;;;;;5197789;28;20299;-55
2023/06/07 06:43:24;;;;;;;5.07;2.20;;;23.50;42.40;;;;;;5187553;28;20704;-45
2023/06/07 06:45:55;;;;;;;2.90;2.07;;;23.80;42.10;;;;;;5177146;28;20203;-44
2023/06/07 06:48:26;;;;;;;4.23;2.93;;;24.00;41.00;;;;;;5182919;28;20187;-45
2023/06/07 06:50:56;;;;;;;6.30;2.70;;;24.00;41.00;;;;;;5190930;28;20198;-46
2023/06/07 06:53:27;;;;;;;3.77;2.30;;;24.00;40.90;;;;;;5199883;28;20177;-45
2023/06/07 06:55:58;;;;;;;2.80;2.37;;;24.50;41.00;;;;;;5181747;28;20220;-44
2023/06/07 06:58:30;;;;;;;3.30;2.47;;;25.00;38.70;;;;;;5200218;28;20266;-45
2023/06/07 07:01:02;;;;;;;11.67;2.63;;;25.40;38.80;;;;;;5198759;28;20668;-45
2023/06/07 07:03:33;;;;;;;4.90;2.70;;;26.10;38.00;;;;;;5188575;28;20774;-44
2023/06/07 07:06:03;;;;;;;2.63;2.17;;;26.70;36.50;;;;;;5210148;28;20464;-45
2023/06/07 07:08:36;;;;;;;4.10;3.03;;;27.70;35.50;;;;;;5206696;28;20534;-45
2023/06/07 07:11:06;;;;;;;6.73;2.67;;;28.70;33.80;;;;;;5190608;28;20188;-45
2023/06/07 07:13:37;;;;;;;2.37;2.27;;;30.10;31.80;;;;;;5187273;28;21015;-45
2023/06/07 07:16:08;;;;;;;4.83;2.17;;;30.70;30.50;;;;;;5182951;28;20333;-45
2023/06/07 07:18:38;;;;;;;2.30;2.10;;;30.40;29.90;;;;;;5192703;28;20195;-44
2023/06/07 07:21:09;;;;;;;3.30;2.73;;;29.50;30.20;;;;;;5193654;28;20288;-44
2023/06/07 07:23:40;;;;;;;5.13;2.23;;;28.30;32.00;;;;;;5193878;28;20272;-45
2023/06/07 07:26:10;;;;;;;4.60;2.57;;;27.60;33.30;;;;;;5201614;28;20174;-45
2023/06/07 07:28:41;;;;;;;2.40;2.20;;;27.20;34.20;;;;;;5175730;28;20215;-45
2023/06/07 07:31:13;;;;;;;3.80;2.80;;;26.50;34.50;;;;;;5195622;28;20180;-43
2023/06/07 07:33:43;;;;;;;2.53;2.30;;;25.80;35.20;;;;;;5197120;28;20682;-43
2023/06/07 07:36:15;;;;;;;3.67;2.60;;;25.60;36.80;;;;;;5180830;28;20540;-44
2023/06/07 07:38:45;;;;;;;2.17;2.03;;;25.50;36.70;;;;;;5198664;28;20210;-45
2023/06/07 07:41:16;;;;;;;4.33;2.37;;;25.40;37.30;;;;;;5188322;28;20541;-45
2023/06/07 07:43:47;;;;;;;6.40;3.00;;;25.10;37.10;;;;;;5181307;28;20288;-44
2023/06/07 07:46:17;;;;;;;8.03;2.70;;;25.10;36.50;;;;;;5195843;28;22225;-45
2023/06/07 07:48:48;;;;;;;6.43;3.27;;;25.30;36.50;;;;;;5173726;28;20187;-47
2023/06/07 07:51:18;;;;;;;4.00;2.60;;;25.30;36.50;;;;;;5177238;28;20295;-45
2023/06/07 07:53:52;;;;;;;3.10;2.37;;;25.60;36.20;;;;;;5164182;28;20269;-45
2023/06/07 07:56:23;;;;;;;6.93;3.70;;;25.80;36.40;;;;;;5192767;28;20248;-44
2023/06/07 07:58:53;;;;;;;4.70;3.13;;;26.80;35.30;;;;;;5191641;28;20498;-43
2023/06/07 08:01:24;;;;;;;2.90;2.70;;;28.60;32.90;;;;;;5192313;28;20434;-45
2023/06/07 08:03:55;;;;;;;2.80;2.00;;;29.30;31.60;;;;;;5162818;28;20552;-45
2023/06/07 08:06:26;;;;;;;9.13;3.00;;;30.10;30.80;;;;;;5169847;28;20206;-45
2023/06/07 08:08:57;;;;;;;4.63;2.07;;;30.80;30.10;;;;;;5196351;28;20446;-44
2023/06/07 08:11:27;;;;;;;8.17;3.50;;;31.10;29.20;;;;;;5197362;28;20625;-45
2023/06/07 08:13:58;;;;;;;4.67;3.00;;;31.00;29.40;;;;;;5177059;28;20183;-45
2023/06/07 08:16:30;;;;;;;5.23;2.50;;;30.50;29.80;;;;;;5182786;28;20195;-45
2023/06/07 08:19:01;;;;;;;5.53;2.63;;;29.70;30.50;;;;;;5200307;28;20664;-44
2023/06/07 08:21:32;;;;;;;3.60;2.40;;;29.20;31.20;;;;;;5159087;28;20530;-45
2023/06/07 08:24:03;;;;;;;2.83;2.67;;;28.50;32.00;;;;;;5198421;28;20549;-44
2023/06/07 08:26:33;;;;;;;6.30;3.10;;;27.50;33.50;;;;;;5192116;28;20283;-45
2023/06/07 08:29:05;;;;;;;4.50;3.17;;;26.60;34.90;;;;;;5205834;28;20600;-46
2023/06/07 08:31:36;;;;;;;5.23;3.17;;;26.40;35.50;;;;;;5198022;28;20184;-45
2023/06/07 08:34:06;;;;;;;4.73;2.67;;;26.30;35.90;;;;;;5194568;28;20539;-45
2023/06/07 08:36:39;;;;;;;3.90;2.70;;;26.00;36.00;;;;;;5189076;28;20441;-45
2023/06/07 08:39:10;;;;;;;7.60;2.70;;;25.80;36.00;;;;;;5174578;28;20626;-45
2023/06/07 08:41:40;;;;;;;2.67;2.47;;;25.70;36.80;;;;;;5173159;28;20474;-45
2023/06/07 08:44:11;;;;;;;3.77;2.57;;;25.80;36.20;;;;;;5180758;28;20279;-45
2023/06/07 08:46:42;;;;;;;2.83;2.53;;;25.90;35.60;;;;;;5191263;28;20176;-45
2023/06/07 08:49:13;;;;;;;3.13;2.80;;;25.90;34.90;;;;;;5177434;28;20180;-45
2023/06/07 08:51:46;;;;;;;3.20;2.47;;;25.80;34.80;;;;;;5194036;28;20512;-45
2023/06/07 08:54:20;;;;;;;2.40;2.20;;;25.70;35.20;;;;;;5186077;28;20207;-46
2023/06/07 08:56:53;;;;;;;5.93;2.50;;;25.70;35.60;;;;;;5201542;28;20522;-44
2023/06/07 08:59:26;;;;;;;7.03;2.10;;;26.00;35.70;;;;;;5187352;28;20824;-46
2023/06/07 09:01:57;;;;;;;2.57;2.37;;;26.40;35.30;;;;;;5196074;28;20475;-45
2023/06/07 09:04:28;;;;;;;3.43;2.70;;;27.00;35.30;;;;;;5194689;28;20488;-45
2023/06/07 09:07:03;;;;;;;2.50;2.30;;;27.50;34.40;;;;;;5171467;28;20183;-45
2023/06/07 09:09:40;;;;;;;2.73;2.50;;;27.60;33.10;;;;;;5189937;28;20186;-46
2023/06/07 09:12:10;;;;;;;3.90;2.73;;;27.60;33.70;;;;;;5194857;28;20437;-45
2023/06/07 09:14:42;;;;;;;3.30;2.50;;;27.40;34.20;;;;;;5195635;28;20875;-45
2023/06/07 09:17:12;;;;;;;4.63;2.33;;;27.30;34.90;;;;;;5199545;28;20272;-45
2023/06/07 09:19:43;;;;;;;2.70;2.60;;;27.00;34.60;;;;;;5192077;28;20592;-49
2023/06/07 09:22:14;;;;;;;2.83;2.53;;;27.20;34.70;;;;;;5192313;28;20168;-45
2023/06/07 09:24:46;;;;;;;3.33;3.13;;;27.30;34.90;;;;;;5186570;28;20702;-45
2023/06/07 09:27:29;;;;;;;9.60;3.27;;;27.40;34.10;;;;;;5162351;28;20422;-45
2023/06/07 09:30:05;;;;;;;5.30;3.20;;;27.60;34.50;;;;;;5183732;28;21056;-45
2023/06/07 09:32:38;;;;;;;4.27;2.70;;;27.20;34.30;;;;;;5193219;28;20441;-44
2023/06/07 09:35:18;;;;;;;4.67;2.50;;;27.20;33.80;;;;;;5197631;28;20981;-46
2023/06/07 09:37:54;;;;;;;5.77;2.40;;;27.20;34.40;;;;;;5174263;28;20446;-45
2023/06/07 09:40:25;;;;;;;2.20;2.10;;;27.10;33.60;;;;;;5180697;28;20837;-45
2023/06/07 09:42:58;;;;;;;2.77;2.57;;;26.90;34.60;;;;;;5198541;28;20452;-45
2023/06/07 09:45:29;;;;;;;3.50;2.37;;;26.70;35.20;;;;;;5189142;28;20262;-44
2023/06/07 09:48:02;;;;;;;2.73;2.63;;;26.70;35.30;;;;;;5178490;28;20454;-45
2023/06/07 09:50:33;;;;;;;2.83;2.60;;;26.70;35.20;;;;;;5194582;28;20234;-44
2023/06/07 09:53:03;;;;;;;2.10;2.00;;;26.60;35.50;;;;;;5191689;28;20799;-45
2023/06/07 09:55:34;;;;;;;4.40;2.20;;;26.50;35.80;;;;;;5195082;28;20239;-44
2023/06/07 09:58:18;;;;;;;2.77;2.37;;;26.30;36.20;;;;;;5189906;28;20202;-44
2023/06/07 10:00:49;;;;;;;2.63;2.43;;;26.30;36.10;;;;;;5197286;28;20172;-45
2023/06/07 10:03:20;;;;;;;13.20;3.63;;;26.20;36.40;;;;;;5194062;28;20430;-45
2023/06/07 10:05:51;;;;;;;2.13;2.13;;;26.20;36.40;;;;;;5166341;28;20250;-45
2023/06/07 10:08:21;;;;;;;2.57;2.33;;;26.30;35.90;;;;;;5193292;28;20199;-46
2023/06/07 10:10:53;;;;;;;2.60;2.50;;;26.30;36.30;;;;;;5189015;28;20446;-49
2023/06/07 10:13:24;;;;;;;3.97;2.13;;;26.60;36.10;;;;;;5172128;28;20199;-45
2023/06/07 10:15:56;;;;;;;2.90;2.57;;;26.70;35.80;;;;;;5190457;28;20966;-45
2023/06/07 10:18:28;;;;;;;2.27;2.07;;;26.70;36.30;;;;;;5179822;28;20469;-44
2023/06/07 10:21:10;;;;;;;2.57;2.30;;;26.80;35.40;;;;;;5196478;28;20445;-45
2023/06/07 10:23:50;;;;;;;3.77;2.77;;;27.00;35.70;;;;;;5200451;28;20706;-45
2023/06/07 10:26:40;;;;;;;3.40;2.43;;;27.20;35.20;;;;;;5198434;28;20435;-46
2023/06/07 10:29:17;;;;;;;2.70;2.60;;;27.50;35.10;;;;;;5206619;28;20580;-45
2023/06/07 10:31:53;;;;;;;3.13;1.97;;;27.40;35.10;;;;;;5194897;28;20434;-45
2023/06/07 10:34:25;;;;;;;3.23;2.83;;;27.50;35.90;;;;;;5204986;28;20458;-45
2023/06/07 10:36:58;;;;;;;5.97;2.87;;;27.50;34.50;;;;;;5203769;28;20764;-44
2023/06/07 10:39:29;;;;;;;10.90;2.27;;;27.50;34.80;;;;;;5205934;28;20479;-42
2023/06/07 10:42:00;;;;;;;2.60;2.40;;;27.50;34.70;;;;;;5211848;28;20430;-46
2023/06/07 10:44:31;;;;;;;2.50;2.30;;;27.40;34.10;;;;;;5204981;28;20569;-47
2023/06/07 10:47:29;;;;;;;3.13;2.93;;;27.50;34.90;;;;;;5197187;28;20519;-46
2023/06/07 10:50:00;;;;;;;8.13;1.83;;;27.50;34.30;;;;;;5196757;28;20247;-44
2023/06/07 10:52:31;;;;;;;2.80;2.60;;;27.40;34.00;;;;;;5206922;28;20484;-45
2023/06/07 10:55:26;;;;;;;2.97;2.77;;;27.30;34.10;;;;;;5196314;28;20208;-46
2023/06/07 10:57:58;;;;;;;4.37;2.37;;;27.20;34.10;;;;;;5186401;28;20198;-46
2023/06/07 11:00:33;;;;;;;3.57;3.30;;;27.20;34.40;;;;;;5184200;28;20466;-45
2023/06/07 11:03:08;;;;;;;2.40;2.30;;;27.30;34.40;;;;;;5185214;28;20457;-45
2023/06/07 11:06:02;;;;;;;3.00;2.20;;;27.50;34.00;;;;;;5182961;28;20479;-45
2023/06/07 11:08:36;;;;;;;2.30;2.13;;;27.50;33.00;;;;;;5204940;28;20513;-47
2023/06/07 11:11:43;;;;;;;2.17;2.07;;;27.40;33.10;;;;;;5184689;28;20521;-44
2023/06/07 11:14:13;;;;;;;4.60;4.10;;;27.40;32.70;;;;;;5197640;28;20491;-46
2023/06/07 11:16:44;;;;;;;3.20;2.37;;;27.50;33.20;;;;;;5191202;28;20445;-45
2023/06/07 11:19:17;;;;;;;3.20;2.20;;;27.80;32.90;;;;;;5187922;28;20298;-45
2023/06/07 11:21:53;;;;;;;2.83;2.47;;;27.90;32.60;;;;;;5199701;28;20422;-45
2023/06/07 11:24:24;;;;;;;28.27;3.37;;;27.90;32.70;;;;;;5207611;28;20441;-44
2023/06/07 11:26:56;;;;;;;2.53;2.40;;;27.80;31.80;;;;;;5199983;28;20442;-44
2023/06/07 11:29:27;;;;;;;2.10;2.00;;;27.80;32.10;;;;;;5200798;28;20522;-44
2023/06/07 11:32:00;;;;;;;11.07;2.43;;;27.80;32.40;;;;;;5200108;28;21021;-45
2023/06/07 11:34:33;;;;;;;2.20;2.00;;;27.90;31.60;;;;;;5193065;28;20509;-45
2023/06/07 11:37:14;;;;;;;2.27;2.17;;;28.20;31.90;;;;;;5198019;28;20925;-44
2023/06/07 11:39:45;;;;;;;2.33;2.10;;;28.40;31.60;;;;;;5181339;28;20462;-46
2023/06/07 11:42:15;;;;;;;2.53;2.33;;;28.30;31.50;;;;;;5177138;28;20536;-45
2023/06/07 11:44:46;;;;;;;2.30;2.20;;;28.10;31.40;;;;;;5202982;28;20485;-44
2023/06/07 11:47:19;;;;;;;5.87;3.33;;;28.20;31.70;;;;;;5196376;28;20235;-44
2023/06/07 11:49:50;;;;;;;3.17;1.97;;;28.20;32.10;;;;;;5181068;28;20568;-46
2023/06/07 11:52:22;;;;;;;2.30;2.20;;;28.30;32.00;;;;;;5188084;28;20533;-44
2023/06/07 11:54:53;;;;;;;4.80;2.77;;;27.90;31.70;;;;;;5186454;28;20204;-43
2023/06/07 11:57:29;;;;;;;4.87;2.63;;;27.50;32.40;;;;;;5208984;28;20444;-44
2023/06/07 12:00:01;;;;;;;3.50;2.30;;;27.40;32.70;;;;;;5183821;28;20619;-45
2023/06/07 12:02:39;;;;;;;2.43;2.33;;;27.30;33.20;;;;;;5203123;28;20434;-43
2023/06/07 12:05:11;;;;;;;2.30;2.20;;;27.30;33.40;;;;;;5191361;28;20446;-44
2023/06/07 12:07:42;;;;;;;4.40;2.07;;;27.30;33.30;;;;;;5195695;28;20431;-44
2023/06/07 12:10:23;;;;;;;2.60;2.40;;;27.20;33.60;;;;;;5196846;28;20453;-44
2023/06/07 12:13:16;;;;;;;3.73;2.93;;;27.30;33.90;;;;;;5198615;28;20932;-45
2023/06/07 12:15:48;;;;;;;4.50;2.80;;;27.30;33.70;;;;;;5199671;28;20450;-46
2023/06/07 12:18:20;;;;;;;3.53;2.40;;;27.40;33.70;;;;;;5199641;28;20466;-44
2023/06/07 12:21:00;;;;;;;2.33;2.23;;;27.50;33.60;;;;;;5184862;28;20496;-45
2023/06/07 12:23:32;;;;;;;4.13;2.60;;;27.40;33.50;;;;;;5196253;28;20899;-47
2023/06/07 12:26:11;;;;;;;2.30;2.13;;;27.50;33.30;;;;;;5173542;28;20512;-44
2023/06/07 12:28:43;;;;;;;6.60;2.90;;;27.50;32.80;;;;;;5190239;28;20454;-44
2023/06/07 12:31:27;;;;;;;3.17;2.73;;;27.50;32.00;;;;;;5177899;28;20442;-45
2023/06/07 12:34:08;;;;;;;4.43;2.73;;;27.40;32.30;;;;;;5194004;28;20450;-46
2023/06/07 12:36:39;;;;;;;11.90;2.53;;;27.30;32.70;;;;;;5180750;28;20845;-44
2023/06/07 12:39:11;;;;;;;2.30;2.20;;;27.20;32.90;;;;;;5183319;28;20549;-45
2023/06/07 12:41:42;;;;;;;3.23;2.60;;;27.30;33.20;;;;;;5191334;28;21504;-43
2023/06/07 12:44:13;;;;;;;2.77;2.57;;;27.40;33.40;;;;;;5190537;28;20462;-46
2023/06/07 12:46:44;;;;;;;2.63;2.43;;;27.40;33.10;;;;;;5181463;28;20187;-47
2023/06/07 12:49:14;;;;;;;3.10;2.90;;;27.50;33.30;;;;;;5190219;28;20265;-44
2023/06/07 12:51:45;;;;;;;3.87;2.70;;;27.50;33.30;;;;;;5197485;28;20183;-44
2023/06/07 12:54:16;;;;;;;3.03;2.10;;;27.60;32.50;;;;;;5192281;28;20841;-45
2023/06/07 12:56:46;;;;;;;4.20;2.83;;;27.50;32.60;;;;;;5184467;28;20195;-45
2023/06/07 12:59:17;;;;;;;2.70;2.50;;;27.50;32.40;;;;;;5187457;28;20208;-45
2023/06/07 13:01:48;;;;;;;2.53;2.43;;;27.60;32.40;;;;;;5181613;28;20183;-45
2023/06/07 13:04:18;;;;;;;5.63;2.67;;;27.50;32.80;;;;;;5182839;28;20192;-45
2023/06/07 13:06:49;;;;;;;4.23;2.23;;;27.40;32.70;;;;;;5190595;28;20187;-44
2023/06/07 13:09:20;;;;;;;2.43;2.30;;;27.40;32.90;;;;;;5179653;28;20504;-45
2023/06/07 13:11:51;;;;;;;6.07;2.50;;;27.40;32.50;;;;;;5179824;28;20215;-46